Time;durP1;ratioP1;P1;durP2;ratioP2;P2;SDS_P1;SDS_P2;PMS_P1;PMS_P2;Temp;Humidity;BMP_temperature;BMP_pressure;BME280_temperature;BME280_humidity;BME280_pressure;Samples;Min_cycle;Max_cycle;Signal;HPM_P1;HPM_P2
2022/07/28 00:03:39;;;;;;;6.30;2.00;;;;;;;12.58;57.90;99719.67;430986;1272;141315;-61
2022/07/28 00:13:45;;;;;;;4.40;2.10;;;;;;;12.26;58.61;99722.20;431005;1270;141847;-62
2022/07/28 00:23:51;;;;;;;4.20;1.50;;;;;;;11.98;59.41;99726.21;431582;1270;142112;-62
2022/07/28 00:34:00;;;;;;;3.10;1.70;;;;;;;11.72;60.30;99718.58;431515;1270;143587;-60
2022/07/28 00:44:07;;;;;;;6.20;2.20;;;;;;;11.47;61.29;99717.45;430894;1270;142982;-61
2022/07/28 00:54:13;;;;;;;2.80;2.00;;;;;;;11.24;62.01;99714.36;431747;1270;141683;-62
2022/07/28 01:04:20;;;;;;;4.20;1.70;;;;;;;11.01;62.54;99714.26;432113;1270;144109;-61
2022/07/28 01:14:35;;;;;;;4.00;1.80;;;;;;;10.80;63.07;99714.02;431371;1270;142879;-62
2022/07/28 01:24:51;;;;;;;4.90;1.90;;;;;;;10.56;63.55;99720.02;431875;1270;141770;-60
2022/07/28 01:35:00;;;;;;;9.10;2.10;;;;;;;10.32;64.12;99725.46;430800;1271;142899;-61
2022/07/28 01:45:12;;;;;;;2.80;2.00;;;;;;;10.11;64.78;99731.44;430901;1271;142495;-63
2022/07/28 01:55:20;;;;;;;3.50;2.30;;;;;;;9.98;65.93;99737.64;432379;1270;147218;-60
2022/07/28 02:05:27;;;;;;;3.10;2.40;;;;;;;9.86;66.67;99742.17;430950;1270;146505;-60
2022/07/28 02:15:34;;;;;;;3.80;2.20;;;;;;;9.65;66.71;99745.68;431548;1270;142334;-61
2022/07/28 02:25:41;;;;;;;3.00;2.10;;;;;;;9.50;67.09;99742.67;430388;1270;146298;-61
2022/07/28 02:35:53;;;;;;;3.80;2.30;;;;;;;9.40;67.42;99743.56;432110;1269;143716;-61
2022/07/28 02:46:10;;;;;;;2.50;1.80;;;;;;;9.28;67.81;99752.30;431517;1271;142009;-60
2022/07/28 02:56:17;;;;;;;2.50;1.80;;;;;;;9.17;68.01;99757.27;430751;1271;142072;-61
2022/07/28 03:06:24;;;;;;;4.20;1.70;;;;;;;9.05;68.52;99764.73;431949;1270;182957;-60
2022/07/28 03:16:33;;;;;;;5.60;2.60;;;;;;;9.05;68.84;99773.31;430945;1270;147045;-61
2022/07/28 03:26:48;;;;;;;3.20;2.50;;;;;;;9.16;68.51;99782.63;431580;1270;141628;-63
2022/07/28 03:37:01;;;;;;;3.90;2.10;;;;;;;9.31;68.53;99784.98;431632;1271;142492;-62
2022/07/28 03:47:07;;;;;;;8.00;2.10;;;;;;;9.52;68.39;99794.13;430954;1271;141579;-61
2022/07/28 03:57:13;;;;;;;11.30;3.00;;;;;;;9.81;68.17;99801.02;432092;1273;145745;-61
2022/07/28 04:07:19;;;;;;;10.70;2.10;;;;;;;10.16;68.29;99808.81;432062;1270;142238;-62
2022/07/28 04:17:25;;;;;;;9.60;2.60;;;;;;;10.97;68.53;99812.11;430956;1270;142613;-61
2022/07/28 04:27:30;;;;;;;4.40;1.90;;;;;;;18.90;63.01;99809.30;431133;1270;142909;-61
2022/07/28 04:37:36;;;;;;;9.50;2.50;;;;;;;26.94;50.54;99805.37;430686;1270;143364;-61
2022/07/28 04:47:42;;;;;;;5.40;2.50;;;;;;;30.02;41.38;99801.70;431919;1270;141980;-60
2022/07/28 04:57:48;;;;;;;6.90;2.40;;;;;;;27.81;39.95;99805.87;431842;1270;142735;-60
2022/07/28 05:07:55;;;;;;;3.10;2.10;;;;;;;34.27;34.68;99802.65;431034;1270;165339;-61
2022/07/28 05:17:59;;;;;;;;;;;;;;;38.63;29.23;99803.55;431450;1270;141293;-60
2022/07/28 05:28:05;;;;;;;5.40;3.40;;;;;;;41.85;25.23;99801.69;437057;1270;130810;-62
2022/07/28 05:38:11;;;;;;;4.10;2.90;;;;;;;44.12;22.03;99802.15;430850;1270;141290;-61
2022/07/28 05:48:20;;;;;;;7.10;2.90;;;;;;;46.71;19.55;99803.29;429831;1270;142913;-60
2022/07/28 05:58:26;;;;;;;9.10;2.90;;;;;;;48.87;17.23;99809.30;436250;1270;143184;-61
2022/07/28 06:08:32;;;;;;;2.30;1.80;;;;;;;50.44;15.22;99810.79;446913;1270;141699;-60
2022/07/28 06:18:37;;;;;;;3.10;2.80;;;;;;;51.74;13.92;99813.99;433768;1270;146943;-61
2022/07/28 06:28:43;;;;;;;2.10;1.90;;;;;;;53.07;12.78;99820.39;430519;1270;144935;-59
2022/07/28 06:38:49;;;;;;;5.20;2.40;;;;;;;52.20;11.95;99815.20;431388;1271;142333;-60
2022/07/28 06:48:55;;;;;;;2.50;2.10;;;;;;;51.57;11.82;99812.76;431877;1270;147015;-58
2022/07/28 06:59:02;;;;;;;4.90;3.80;;;;;;;52.74;11.06;99820.05;431376;1270;142361;-60
2022/07/28 07:09:08;;;;;;;4.20;3.90;;;;;;;51.11;10.79;99826.20;431645;1271;140774;-60
2022/07/28 07:19:14;;;;;;;4.30;3.50;;;;;;;49.51;10.77;99822.14;431325;1271;143067;-60
2022/07/28 07:29:21;;;;;;;3.40;3.10;;;;;;;48.71;10.82;99820.98;430961;1270;145281;-60
2022/07/28 07:39:27;;;;;;;4.10;3.80;;;;;;;50.00;11.03;99821.65;432231;1270;143007;-60
2022/07/28 07:49:33;;;;;;;6.10;5.60;;;;;;;51.08;10.25;99825.80;431425;1270;145773;-62
2022/07/28 07:59:50;;;;;;;12.80;4.40;;;;;;;48.97;10.39;99834.88;431489;1270;212183;-60
2022/07/28 08:09:56;;;;;;;4.20;1.50;;;;;;;47.82;10.68;99834.46;431744;1270;141841;-60
2022/07/28 08:20:03;;;;;;;3.50;1.10;;;;;;;40.82;12.87;99845.34;431368;1270;140958;-61
2022/07/28 08:30:14;;;;;;;4.20;0.80;;;;;;;33.18;16.95;99850.04;431616;1270;146740;-61
2022/07/28 08:40:29;;;;;;;6.10;1.40;;;;;;;30.17;19.70;99848.07;431792;1268;145284;-62
2022/07/28 08:50:35;;;;;;;1.70;0.90;;;;;;;27.87;22.00;99854.06;432028;1270;142958;-60
2022/07/28 09:00:41;;;;;;;;;;;;;;;26.86;23.65;99854.21;431825;1270;141161;-61
2022/07/28 09:10:46;;;;;;;1.20;0.70;;;;;;;26.51;24.90;99866.25;431488;1270;128687;-63
2022/07/28 09:20:53;;;;;;;2.70;1.00;;;;;;;27.28;24.47;99856.35;431496;1270;141298;-60
2022/07/28 09:31:08;;;;;;;2.50;1.00;;;;;;;27.12;24.78;99851.73;431572;1270;146011;-61
2022/07/28 09:41:17;;;;;;;2.10;0.90;;;;;;;26.61;25.30;99851.91;430996;1270;142716;-62
2022/07/28 09:51:25;;;;;;;1.60;1.10;;;;;;;26.63;25.60;99853.41;431791;1270;145425;-60
2022/07/28 10:01:31;;;;;;;3.90;0.80;;;;;;;25.47;26.25;99850.88;431715;1271;141227;-61
2022/07/28 10:11:41;;;;;;;1.20;0.50;;;;;;;24.75;27.21;99842.45;431747;1269;140915;-63
2022/07/28 10:21:52;;;;;;;3.30;0.60;;;;;;;24.75;27.45;99840.04;431190;1270;147128;-61
2022/07/28 10:32:04;;;;;;;3.10;0.60;;;;;;;24.56;28.20;99837.02;431072;1270;141829;-63
2022/07/28 10:42:12;;;;;;;1.20;0.50;;;;;;;24.37;28.37;99827.04;431392;1270;141441;-61
2022/07/28 10:52:19;;;;;;;3.10;0.90;;;;;;;23.85;28.93;99817.85;431493;1270;143271;-62
2022/07/28 11:02:57;;;;;;;4.00;1.10;;;;;;;23.53;29.78;99820.06;431665;1270;140989;-60
2022/07/28 11:13:05;;;;;;;1.60;0.90;;;;;;;23.37;30.13;99814.40;432348;1270;142301;-62
2022/07/28 11:23:43;;;;;;;1.80;0.80;;;;;;;23.37;30.38;99807.50;431326;1270;357463;-62
2022/07/28 11:33:57;;;;;;;4.10;0.60;;;;;;;23.36;30.52;99802.89;431855;1270;141553;-61
2022/07/28 11:44:26;;;;;;;2.30;0.80;;;;;;;23.43;30.46;99800.84;431305;1269;141785;-61
2022/07/28 11:54:34;;;;;;;1.60;0.90;;;;;;;23.60;30.22;99791.23;431782;1270;146402;-61
2022/07/28 12:04:40;;;;;;;1.70;0.60;;;;;;;24.03;29.65;99787.05;431118;1270;141988;-62
2022/07/28 12:14:46;;;;;;;0.90;0.50;;;;;;;24.49;29.09;99782.00;431646;1270;141707;-62
2022/07/28 12:24:58;;;;;;;1.80;1.00;;;;;;;24.96;28.69;99770.69;432165;1270;141119;-62
2022/07/28 12:35:05;;;;;;;2.50;0.70;;;;;;;25.23;28.70;99766.70;431086;1270;141775;-61
2022/07/28 12:45:12;;;;;;;2.80;1.10;;;;;;;25.10;28.77;99768.59;432015;1270;142243;-62
2022/07/28 12:55:28;;;;;;;2.10;0.80;;;;;;;25.05;29.34;99763.03;438288;1270;142392;-61
2022/07/28 13:16:17;;;;;;;4.70;0.90;;;;;;;25.70;29.07;99763.30;443301;1270;142197;-60
2022/07/28 13:26:23;;;;;;;1.20;1.10;;;;;;;25.53;29.19;99772.58;432945;1270;141676;-61
2022/07/28 13:36:29;;;;;;;3.10;0.80;;;;;;;25.34;29.28;99769.83;431553;1270;141195;-62
2022/07/28 13:46:36;;;;;;;2.60;0.90;;;;;;;25.03;29.37;99769.02;430844;1270;145849;-61
2022/07/28 13:57:09;;;;;;;1.50;1.00;;;;;;;24.75;29.50;99768.08;431611;1271;143546;-62
2022/07/28 14:07:15;;;;;;;1.70;0.90;;;;;;;25.12;29.19;99765.84;431685;1271;142137;-61
2022/07/28 14:17:25;;;;;;;2.70;1.20;;;;;;;25.19;29.19;99763.52;432455;1270;140915;-61
2022/07/28 14:27:50;;;;;;;3.50;0.70;;;;;;;24.79;29.46;99759.95;432531;1273;140988;-63
2022/07/28 14:37:56;;;;;;;1.30;0.60;;;;;;;24.71;29.63;99755.37;430874;1270;142301;-61
2022/07/28 14:48:22;;;;;;;3.50;0.90;;;;;;;24.46;29.98;99752.02;431735;1270;141578;-62
2022/07/28 14:58:28;;;;;;;5.00;1.60;;;;;;;24.45;30.38;99750.05;431813;1270;142230;-61
2022/07/28 15:08:34;;;;;;;1.40;0.50;;;;;;;24.52;30.11;99746.67;430932;1270;141338;-61
2022/07/28 15:18:40;;;;;;;3.00;0.70;;;;;;;24.48;30.34;99742.41;431943;1270;140664;-62
2022/07/28 15:28:47;;;;;;;0.80;0.50;;;;;;;24.52;30.29;99735.10;430720;1270;142846;-61
2022/07/28 15:38:53;;;;;;;1.40;0.90;;;;;;;24.43;30.61;99736.02;432721;1269;141405;-61
2022/07/28 15:49:03;;;;;;;1.90;0.60;;;;;;;24.26;30.81;99730.11;432186;1270;140825;-61
2022/07/28 15:59:09;;;;;;;2.20;0.70;;;;;;;24.22;31.01;99733.47;431273;1271;142225;-62
2022/07/28 16:09:16;;;;;;;3.20;0.90;;;;;;;24.18;31.14;99733.28;432113;1271;141848;-63
2022/07/28 16:19:23;;;;;;;1.80;0.80;;;;;;;23.96;31.39;99731.52;431297;1271;140676;-62
2022/07/28 16:29:49;;;;;;;1.40;0.80;;;;;;;23.60;31.91;99729.84;430932;1271;140914;-61
2022/07/28 16:39:56;;;;;;;3.70;0.60;;;;;;;23.42;32.27;99726.40;434214;1271;142009;-60
2022/07/28 16:50:02;;;;;;;3.20;0.50;;;;;;;23.20;32.18;99732.95;431948;1273;141729;-61
2022/07/28 17:00:12;;;;;;;4.00;1.20;;;;;;;23.00;32.59;99735.02;443413;1271;142409;-60
2022/07/28 17:10:18;;;;;;;0.90;0.50;;;;;;;23.29;32.50;99731.00;436436;1271;140994;-60
2022/07/28 17:20:31;;;;;;;2.80;0.80;;;;;;;23.10;32.41;99737.16;431609;1271;141071;-60
2022/07/28 17:30:37;;;;;;;7.20;1.40;;;;;;;22.80;32.67;99738.51;431873;1271;141454;-60
2022/07/28 17:40:43;;;;;;;5.70;1.10;;;;;;;23.00;32.93;99740.23;431285;1273;142401;-61
2022/07/28 17:50:50;;;;;;;1.20;0.80;;;;;;;23.19;32.41;99742.30;431378;1269;140681;-61
2022/07/28 18:00:57;;;;;;;3.20;0.60;;;;;;;22.36;33.41;99747.52;432916;1270;141648;-64
2022/07/28 18:11:16;;;;;;;2.80;0.80;;;;;;;22.37;34.27;99755.80;430139;1271;144866;-61
2022/07/28 18:21:22;;;;;;;1.60;0.50;;;;;;;21.72;34.78;99765.66;431684;1271;142916;-61
2022/07/28 18:31:28;;;;;;;3.60;0.60;;;;;;;21.00;35.95;99766.70;430983;1273;142384;-61
2022/07/28 18:41:34;;;;;;;2.20;0.90;;;;;;;20.59;36.98;99772.00;431848;1271;142513;-60
2022/07/28 18:51:53;;;;;;;6.00;1.20;;;;;;;20.22;37.88;99776.79;431520;1273;142026;-61
2022/07/28 19:01:59;;;;;;;1.90;1.10;;;;;;;19.92;38.50;99791.64;431607;1270;141545;-61
2022/07/28 19:12:06;;;;;;;3.80;1.20;;;;;;;19.66;39.32;99801.83;431429;1270;142241;-60
2022/07/28 19:22:12;;;;;;;3.00;1.80;;;;;;;19.34;39.95;99808.74;430898;1271;142745;-59
2022/07/28 19:32:18;;;;;;;4.10;1.20;;;;;;;19.02;40.84;99812.47;431191;1270;143328;-62
2022/07/28 19:42:27;;;;;;;3.30;1.10;;;;;;;18.75;41.52;99818.50;432014;1270;141825;-61
2022/07/28 19:52:33;;;;;;;3.30;1.00;;;;;;;18.61;42.03;99825.31;431710;1270;143434;-62
2022/07/28 20:02:42;;;;;;;5.10;1.50;;;;;;;18.43;42.64;99830.26;431319;1270;207360;-61
2022/07/28 20:12:48;;;;;;;3.10;1.40;;;;;;;18.25;43.34;99833.98;431847;1270;141562;-61
2022/07/28 20:22:53;;;;;;;3.00;1.60;;;;;;;18.07;43.71;99837.99;431131;1270;141812;-60
2022/07/28 20:33:01;;;;;;;2.40;1.30;;;;;;;17.81;44.26;99843.30;430793;1270;142340;-60
2022/07/28 20:43:07;;;;;;;3.50;1.20;;;;;;;17.60;44.92;99846.58;431453;1270;141501;-62
2022/07/28 20:53:12;;;;;;;4.50;1.60;;;;;;;17.37;45.74;99853.05;430419;1270;141511;-60
2022/07/28 21:03:20;;;;;;;5.30;1.80;;;;;;;17.23;46.33;99858.84;431286;1270;142328;-60
2022/07/28 21:13:26;;;;;;;2.90;1.70;;;;;;;17.26;46.65;99863.39;433628;1271;140500;-62
2022/07/28 21:23:32;;;;;;;6.80;1.80;;;;;;;17.21;46.90;99869.48;430725;1271;140716;-60
2022/07/28 21:33:38;;;;;;;4.10;1.30;;;;;;;17.07;47.36;99879.98;431842;1271;140853;-61
2022/07/28 21:43:44;;;;;;;2.20;1.40;;;;;;;16.97;47.59;99886.34;430317;1271;141368;-60
2022/07/28 21:53:51;;;;;;;2.90;1.00;;;;;;;16.84;47.99;99888.00;431123;1270;141762;-60
2022/07/28 22:03:57;;;;;;;2.30;1.20;;;;;;;16.68;48.11;99897.44;431901;1272;142741;-61
2022/07/28 22:14:03;;;;;;;3.40;1.50;;;;;;;16.58;48.40;99905.69;430804;1271;180998;-61
2022/07/28 22:24:10;;;;;;;2.60;1.00;;;;;;;16.55;48.59;99907.54;431387;1271;141373;-61
2022/07/28 22:34:16;;;;;;;1.90;1.30;;;;;;;16.39;48.91;99908.33;431749;1270;141702;-60
2022/07/28 22:44:22;;;;;;;6.60;1.40;;;;;;;16.30;49.38;99913.48;431131;1270;142454;-61
2022/07/28 22:54:28;;;;;;;2.40;1.30;;;;;;;16.23;49.71;99916.37;431644;1269;143399;-59
2022/07/28 23:04:34;;;;;;;4.60;1.80;;;;;;;16.19;49.99;99911.17;431066;1270;141960;-62
2022/07/28 23:14:39;;;;;;;2.50;1.10;;;;;;;16.09;50.21;99909.85;431498;1270;212048;-62
2022/07/28 23:24:45;;;;;;;2.40;1.20;;;;;;;16.02;50.51;99904.85;431471;1270;340202;-62
2022/07/28 23:34:51;;;;;;;3.30;1.50;;;;;;;15.92;50.60;99909.14;431068;1270;142727;-61
2022/07/28 23:44:57;;;;;;;2.60;1.40;;;;;;;15.82;51.03;99906.75;432027;1270;141685;-60
2022/07/28 23:55:03;;;;;;;4.40;1.40;;;;;;;15.77;51.18;99904.48;432026;1270;141453;-60
